sensor_id;sensor_type;location;lat;lon;timestamp;P1;durP1;ratioP1;P2;durP2;ratioP2
47329;SDS011;33060;50.178;7.570;2022-12-29T00:01:41;2.30;;;1.90;;
47329;SDS011;33060;50.178;7.570;2022-12-29T00:04:09;4.00;;;2.28;;
47329;SDS011;33060;50.178;7.570;2022-12-29T00:06:41;2.33;;;2.13;;
47329;SDS011;33060;50.178;7.570;2022-12-29T00:09:10;3.73;;;2.20;;
47329;SDS011;33060;50.178;7.570;2022-12-29T00:11:38;3.53;;;2.10;;
47329;SDS011;33060;50.178;7.570;2022-12-29T00:14:05;2.80;;;2.17;;
47329;SDS011;33060;50.178;7.570;2022-12-29T00:16:51;4.32;;;2.60;;
47329;SDS011;33060;50.178;7.570;2022-12-29T00:19:18;3.38;;;2.03;;
47329;SDS011;33060;50.178;7.570;2022-12-29T00:22:04;2.70;;;2.00;;
47329;SDS011;33060;50.178;7.570;2022-12-29T00:24:49;2.85;;;2.10;;
47329;SDS011;33060;50.178;7.570;2022-12-29T00:27:28;3.03;;;2.20;;
47329;SDS011;33060;50.178;7.570;2022-12-29T00:30:18;3.53;;;2.20;;
47329;SDS011;33060;50.178;7.570;2022-12-29T00:33:08;2.30;;;2.00;;
47329;SDS011;33060;50.178;7.570;2022-12-29T00:35:57;2.50;;;1.90;;
47329;SDS011;33060;50.178;7.570;2022-12-29T00:38:28;2.77;;;2.00;;
47329;SDS011;33060;50.178;7.570;2022-12-29T00:41:16;2.20;;;2.00;;
47329;SDS011;33060;50.178;7.570;2022-12-29T00:44:18;3.47;;;1.63;;
47329;SDS011;33060;50.178;7.570;2022-12-29T00:46:44;2.17;;;1.80;;
47329;SDS011;33060;50.178;7.570;2022-12-29T00:49:12;2.97;;;1.50;;
47329;SDS011;33060;50.178;7.570;2022-12-29T00:52:06;2.27;;;1.60;;
47329;SDS011;33060;50.178;7.570;2022-12-29T00:54:35;2.43;;;1.60;;
47329;SDS011;33060;50.178;7.570;2022-12-29T00:57:04;1.77;;;1.60;;
47329;SDS011;33060;50.178;7.570;2022-12-29T00:59:34;2.30;;;1.60;;
47329;SDS011;33060;50.178;7.570;2022-12-29T01:02:01;2.27;;;1.70;;
47329;SDS011;33060;50.178;7.570;2022-12-29T01:04:29;2.10;;;1.50;;
47329;SDS011;33060;50.178;7.570;2022-12-29T01:06:56;1.50;;;1.30;;
47329;SDS011;33060;50.178;7.570;2022-12-29T01:09:22;2.00;;;1.50;;
47329;SDS011;33060;50.178;7.570;2022-12-29T01:12:08;1.50;;;1.20;;
47329;SDS011;33060;50.178;7.570;2022-12-29T01:14:36;1.60;;;1.10;;
47329;SDS011;33060;50.178;7.570;2022-12-29T01:17:03;2.65;;;1.48;;
47329;SDS011;33060;50.178;7.570;2022-12-29T01:19:31;1.55;;;1.10;;
47329;SDS011;33060;50.178;7.570;2022-12-29T01:21:59;2.30;;;1.40;;
47329;SDS011;33060;50.178;7.570;2022-12-29T01:24:26;1.30;;;1.17;;
47329;SDS011;33060;50.178;7.570;2022-12-29T01:26:53;2.53;;;1.30;;
47329;SDS011;33060;50.178;7.570;2022-12-29T01:29:21;2.47;;;1.20;;
47329;SDS011;33060;50.178;7.570;2022-12-29T01:31:47;1.60;;;1.33;;
47329;SDS011;33060;50.178;7.570;2022-12-29T01:34:16;2.83;;;1.20;;
47329;SDS011;33060;50.178;7.570;2022-12-29T01:36:43;1.93;;;1.03;;
47329;SDS011;33060;50.178;7.570;2022-12-29T01:39:11;1.30;;;1.00;;
47329;SDS011;33060;50.178;7.570;2022-12-29T01:41:39;0.93;;;0.80;;
47329;SDS011;33060;50.178;7.570;2022-12-29T01:47:10;1.17;;;0.93;;
47329;SDS011;33060;50.178;7.570;2022-12-29T01:49:37;1.50;;;0.90;;
47329;SDS011;33060;50.178;7.570;2022-12-29T01:52:05;2.63;;;1.20;;
47329;SDS011;33060;50.178;7.570;2022-12-29T01:57:08;1.30;;;1.00;;
47329;SDS011;33060;50.178;7.570;2022-12-29T01:59:46;1.45;;;1.10;;
47329;SDS011;33060;50.178;7.570;2022-12-29T02:02:19;1.90;;;0.90;;
47329;SDS011;33060;50.178;7.570;2022-12-29T02:04:46;1.17;;;1.00;;
47329;SDS011;33060;50.178;7.570;2022-12-29T02:07:20;1.10;;;0.90;;
47329;SDS011;33060;50.178;7.570;2022-12-29T02:09:49;2.70;;;1.03;;
47329;SDS011;33060;50.178;7.570;2022-12-29T02:12:18;1.07;;;0.90;;
47329;SDS011;33060;50.178;7.570;2022-12-29T02:14:47;2.65;;;1.00;;
47329;SDS011;33060;50.178;7.570;2022-12-29T02:17:34;1.35;;;0.90;;
47329;SDS011;33060;50.178;7.570;2022-12-29T02:34:38;1.20;;;1.00;;
47329;SDS011;33060;50.178;7.570;2022-12-29T02:37:24;1.10;;;0.97;;
47329;SDS011;33060;50.178;7.570;2022-12-29T02:42:47;1.40;;;1.00;;
47329;SDS011;33060;50.178;7.570;2022-12-29T02:45:36;1.45;;;0.95;;
47329;SDS011;33060;50.178;7.570;2022-12-29T02:48:52;1.10;;;0.80;;
47329;SDS011;33060;50.178;7.570;2022-12-29T02:51:29;1.30;;;0.90;;
47329;SDS011;33060;50.178;7.570;2022-12-29T02:54:10;1.48;;;0.93;;
47329;SDS011;33060;50.178;7.570;2022-12-29T02:56:55;0.85;;;0.80;;
47329;SDS011;33060;50.178;7.570;2022-12-29T02:59:22;1.10;;;0.83;;
47329;SDS011;33060;50.178;7.570;2022-12-29T03:10:22;2.20;;;1.00;;
47329;SDS011;33060;50.178;7.570;2022-12-29T03:12:59;1.40;;;0.90;;
47329;SDS011;33060;50.178;7.570;2022-12-29T03:16:01;1.58;;;1.10;;
47329;SDS011;33060;50.178;7.570;2022-12-29T03:24:22;2.05;;;0.90;;
47329;SDS011;33060;50.178;7.570;2022-12-29T03:26:56;1.20;;;1.00;;
47329;SDS011;33060;50.178;7.570;2022-12-29T03:29:32;1.60;;;0.83;;
47329;SDS011;33060;50.178;7.570;2022-12-29T03:32:02;1.70;;;1.00;;
47329;SDS011;33060;50.178;7.570;2022-12-29T03:34:31;1.75;;;1.00;;
47329;SDS011;33060;50.178;7.570;2022-12-29T03:37:05;2.00;;;0.85;;
47329;SDS011;33060;50.178;7.570;2022-12-29T03:39:36;1.40;;;1.00;;
47329;SDS011;33060;50.178;7.570;2022-12-29T03:42:09;2.03;;;1.20;;
47329;SDS011;33060;50.178;7.570;2022-12-29T03:44:40;2.95;;;1.15;;
47329;SDS011;33060;50.178;7.570;2022-12-29T03:47:12;1.73;;;1.00;;
47329;SDS011;33060;50.178;7.570;2022-12-29T03:49:41;1.95;;;1.10;;
47329;SDS011;33060;50.178;7.570;2022-12-29T03:52:08;2.13;;;1.02;;
47329;SDS011;33060;50.178;7.570;2022-12-29T03:54:40;2.05;;;1.05;;
47329;SDS011;33060;50.178;7.570;2022-12-29T03:57:08;2.45;;;1.13;;
47329;SDS011;33060;50.178;7.570;2022-12-29T03:59:45;1.63;;;0.90;;
47329;SDS011;33060;50.178;7.570;2022-12-29T04:02:12;2.40;;;1.10;;
47329;SDS011;33060;50.178;7.570;2022-12-29T04:04:40;4.15;;;1.20;;
47329;SDS011;33060;50.178;7.570;2022-12-29T04:07:06;1.67;;;1.30;;
47329;SDS011;33060;50.178;7.570;2022-12-29T04:09:34;1.53;;;1.10;;
47329;SDS011;33060;50.178;7.570;2022-12-29T04:12:01;3.30;;;1.30;;
47329;SDS011;33060;50.178;7.570;2022-12-29T04:14:28;4.33;;;1.67;;
47329;SDS011;33060;50.178;7.570;2022-12-29T04:16:55;2.40;;;1.40;;
47329;SDS011;33060;50.178;7.570;2022-12-29T04:19:22;2.85;;;1.20;;
47329;SDS011;33060;50.178;7.570;2022-12-29T04:21:49;3.38;;;1.27;;
47329;SDS011;33060;50.178;7.570;2022-12-29T04:24:16;3.13;;;1.30;;
47329;SDS011;33060;50.178;7.570;2022-12-29T04:26:44;2.60;;;1.20;;
47329;SDS011;33060;50.178;7.570;2022-12-29T04:29:28;2.85;;;1.33;;
47329;SDS011;33060;50.178;7.570;2022-12-29T04:32:04;2.57;;;1.30;;
47329;SDS011;33060;50.178;7.570;2022-12-29T04:34:33;4.57;;;1.25;;
47329;SDS011;33060;50.178;7.570;2022-12-29T04:37:00;3.92;;;1.38;;
47329;SDS011;33060;50.178;7.570;2022-12-29T04:39:27;3.80;;;1.40;;
47329;SDS011;33060;50.178;7.570;2022-12-29T04:41:54;2.35;;;1.30;;
47329;SDS011;33060;50.178;7.570;2022-12-29T04:44:20;1.58;;;0.98;;
47329;SDS011;33060;50.178;7.570;2022-12-29T04:46:53;3.40;;;1.35;;
47329;SDS011;33060;50.178;7.570;2022-12-29T04:49:38;5.20;;;1.30;;
47329;SDS011;33060;50.178;7.570;2022-12-29T04:52:40;2.20;;;1.48;;
47329;SDS011;33060;50.178;7.570;2022-12-29T04:55:09;2.97;;;1.40;;
47329;SDS011;33060;50.178;7.570;2022-12-29T04:57:35;1.75;;;1.20;;
47329;SDS011;33060;50.178;7.570;2022-12-29T05:00:03;4.25;;;1.65;;
47329;SDS011;33060;50.178;7.570;2022-12-29T05:02:30;2.17;;;1.30;;
47329;SDS011;33060;50.178;7.570;2022-12-29T05:04:59;2.17;;;1.30;;
47329;SDS011;33060;50.178;7.570;2022-12-29T05:07:26;2.50;;;1.30;;
47329;SDS011;33060;50.178;7.570;2022-12-29T05:09:54;2.97;;;1.20;;
47329;SDS011;33060;50.178;7.570;2022-12-29T05:12:20;1.77;;;1.30;;
47329;SDS011;33060;50.178;7.570;2022-12-29T05:14:55;1.73;;;1.15;;
47329;SDS011;33060;50.178;7.570;2022-12-29T05:17:23;1.60;;;1.20;;
47329;SDS011;33060;50.178;7.570;2022-12-29T05:19:49;2.85;;;1.30;;
47329;SDS011;33060;50.178;7.570;2022-12-29T05:22:17;3.67;;;1.30;;
47329;SDS011;33060;50.178;7.570;2022-12-29T05:24:44;2.47;;;1.52;;
47329;SDS011;33060;50.178;7.570;2022-12-29T05:27:11;2.47;;;1.30;;
47329;SDS011;33060;50.178;7.570;2022-12-29T05:29:56;2.80;;;1.17;;
47329;SDS011;33060;50.178;7.570;2022-12-29T05:32:23;2.30;;;1.45;;
47329;SDS011;33060;50.178;7.570;2022-12-29T05:34:51;2.65;;;1.08;;
47329;SDS011;33060;50.178;7.570;2022-12-29T05:37:18;2.88;;;1.17;;
47329;SDS011;33060;50.178;7.570;2022-12-29T05:39:45;3.35;;;1.42;;
47329;SDS011;33060;50.178;7.570;2022-12-29T05:42:12;1.95;;;1.20;;
47329;SDS011;33060;50.178;7.570;2022-12-29T05:45:07;2.70;;;1.40;;
47329;SDS011;33060;50.178;7.570;2022-12-29T05:47:47;3.28;;;1.45;;
47329;SDS011;33060;50.178;7.570;2022-12-29T05:50:36;3.22;;;1.48;;
47329;SDS011;33060;50.178;7.570;2022-12-29T05:53:10;3.17;;;1.20;;
47329;SDS011;33060;50.178;7.570;2022-12-29T05:55:37;2.15;;;1.30;;
47329;SDS011;33060;50.178;7.570;2022-12-29T05:58:12;2.33;;;1.20;;
47329;SDS011;33060;50.178;7.570;2022-12-29T06:00:39;2.58;;;1.30;;
47329;SDS011;33060;50.178;7.570;2022-12-29T06:03:09;1.75;;;1.17;;
47329;SDS011;33060;50.178;7.570;2022-12-29T06:05:36;1.90;;;1.23;;
47329;SDS011;33060;50.178;7.570;2022-12-29T06:08:03;1.98;;;1.23;;
47329;SDS011;33060;50.178;7.570;2022-12-29T06:10:30;2.73;;;1.47;;
47329;SDS011;33060;50.178;7.570;2022-12-29T06:13:01;2.05;;;1.35;;
47329;SDS011;33060;50.178;7.570;2022-12-29T06:15:29;2.58;;;1.30;;
47329;SDS011;33060;50.178;7.570;2022-12-29T06:17:56;2.65;;;1.20;;
47329;SDS011;33060;50.178;7.570;2022-12-29T06:20:23;2.47;;;1.42;;
47329;SDS011;33060;50.178;7.570;2022-12-29T06:22:51;1.77;;;1.23;;
47329;SDS011;33060;50.178;7.570;2022-12-29T06:25:17;4.38;;;1.45;;
47329;SDS011;33060;50.178;7.570;2022-12-29T06:27:45;1.40;;;1.20;;
47329;SDS011;33060;50.178;7.570;2022-12-29T06:30:12;2.85;;;1.27;;
47329;SDS011;33060;50.178;7.570;2022-12-29T06:32:39;2.00;;;1.10;;
47329;SDS011;33060;50.178;7.570;2022-12-29T06:35:09;2.97;;;1.20;;
47329;SDS011;33060;50.178;7.570;2022-12-29T06:37:41;2.80;;;1.10;;
47329;SDS011;33060;50.178;7.570;2022-12-29T06:40:08;1.50;;;1.00;;
47329;SDS011;33060;50.178;7.570;2022-12-29T06:42:53;1.30;;;1.00;;
47329;SDS011;33060;50.178;7.570;2022-12-29T06:45:55;1.50;;;1.10;;
47329;SDS011;33060;50.178;7.570;2022-12-29T06:48:21;2.03;;;0.97;;
47329;SDS011;33060;50.178;7.570;2022-12-29T06:50:48;1.98;;;0.98;;
47329;SDS011;33060;50.178;7.570;2022-12-29T06:53:15;2.00;;;1.00;;
47329;SDS011;33060;50.178;7.570;2022-12-29T06:55:41;0.85;;;0.73;;
47329;SDS011;33060;50.178;7.570;2022-12-29T06:58:08;1.80;;;1.10;;
47329;SDS011;33060;50.178;7.570;2022-12-29T07:00:35;1.40;;;1.00;;
47329;SDS011;33060;50.178;7.570;2022-12-29T07:03:02;1.50;;;0.90;;
47329;SDS011;33060;50.178;7.570;2022-12-29T07:05:29;1.45;;;0.95;;
47329;SDS011;33060;50.178;7.570;2022-12-29T07:07:58;1.57;;;1.00;;
47329;SDS011;33060;50.178;7.570;2022-12-29T07:10:25;1.73;;;1.10;;
47329;SDS011;33060;50.178;7.570;2022-12-29T07:12:52;2.07;;;1.20;;
47329;SDS011;33060;50.178;7.570;2022-12-29T07:15:18;1.55;;;0.90;;
47329;SDS011;33060;50.178;7.570;2022-12-29T07:17:45;1.20;;;1.00;;
47329;SDS011;33060;50.178;7.570;2022-12-29T07:20:12;1.67;;;1.07;;
47329;SDS011;33060;50.178;7.570;2022-12-29T07:22:38;1.50;;;1.00;;
47329;SDS011;33060;50.178;7.570;2022-12-29T07:25:05;1.52;;;1.10;;
47329;SDS011;33060;50.178;7.570;2022-12-29T07:27:32;1.95;;;0.95;;
47329;SDS011;33060;50.178;7.570;2022-12-29T07:29:58;1.58;;;1.27;;
47329;SDS011;33060;50.178;7.570;2022-12-29T07:32:25;1.35;;;1.25;;
47329;SDS011;33060;50.178;7.570;2022-12-29T07:34:52;1.67;;;1.10;;
47329;SDS011;33060;50.178;7.570;2022-12-29T07:37:18;2.22;;;1.27;;
47329;SDS011;33060;50.178;7.570;2022-12-29T07:39:45;2.63;;;1.30;;
47329;SDS011;33060;50.178;7.570;2022-12-29T07:42:12;1.63;;;1.10;;
47329;SDS011;33060;50.178;7.570;2022-12-29T07:44:41;1.65;;;0.93;;
47329;SDS011;33060;50.178;7.570;2022-12-29T07:47:15;1.88;;;1.27;;
47329;SDS011;33060;50.178;7.570;2022-12-29T07:49:41;2.53;;;1.42;;
47329;SDS011;33060;50.178;7.570;2022-12-29T07:52:08;2.70;;;1.63;;
47329;SDS011;33060;50.178;7.570;2022-12-29T07:54:35;2.05;;;1.30;;
47329;SDS011;33060;50.178;7.570;2022-12-29T07:57:01;1.95;;;1.35;;
47329;SDS011;33060;50.178;7.570;2022-12-29T07:59:28;2.95;;;1.52;;
47329;SDS011;33060;50.178;7.570;2022-12-29T08:01:55;2.30;;;1.95;;
47329;SDS011;33060;50.178;7.570;2022-12-29T08:04:22;1.50;;;1.00;;
47329;SDS011;33060;50.178;7.570;2022-12-29T08:06:49;2.22;;;1.10;;
47329;SDS011;33060;50.178;7.570;2022-12-29T08:09:16;2.13;;;1.27;;
47329;SDS011;33060;50.178;7.570;2022-12-29T08:11:49;1.35;;;0.95;;
47329;SDS011;33060;50.178;7.570;2022-12-29T08:14:16;5.85;;;4.28;;
47329;SDS011;33060;50.178;7.570;2022-12-29T08:16:42;2.30;;;1.40;;
47329;SDS011;33060;50.178;7.570;2022-12-29T08:19:12;2.53;;;1.38;;
47329;SDS011;33060;50.178;7.570;2022-12-29T08:21:39;2.23;;;1.87;;
47329;SDS011;33060;50.178;7.570;2022-12-29T08:24:06;2.67;;;1.50;;
47329;SDS011;33060;50.178;7.570;2022-12-29T08:26:34;1.83;;;1.20;;
47329;SDS011;33060;50.178;7.570;2022-12-29T08:29:00;2.10;;;1.48;;
47329;SDS011;33060;50.178;7.570;2022-12-29T08:31:27;1.60;;;1.48;;
47329;SDS011;33060;50.178;7.570;2022-12-29T08:33:54;2.03;;;1.83;;
47329;SDS011;33060;50.178;7.570;2022-12-29T08:36:20;3.17;;;1.97;;
47329;SDS011;33060;50.178;7.570;2022-12-29T08:38:47;3.45;;;2.85;;
47329;SDS011;33060;50.178;7.570;2022-12-29T08:41:13;2.70;;;2.37;;
47329;SDS011;33060;50.178;7.570;2022-12-29T08:43:40;1.92;;;1.63;;
47329;SDS011;33060;50.178;7.570;2022-12-29T08:46:07;1.70;;;1.27;;
47329;SDS011;33060;50.178;7.570;2022-12-29T08:48:33;3.50;;;1.83;;
47329;SDS011;33060;50.178;7.570;2022-12-29T08:51:00;3.50;;;3.20;;
47329;SDS011;33060;50.178;7.570;2022-12-29T08:53:26;4.80;;;4.23;;
47329;SDS011;33060;50.178;7.570;2022-12-29T08:55:57;4.20;;;3.80;;
47329;SDS011;33060;50.178;7.570;2022-12-29T08:58:37;8.10;;;7.30;;
47329;SDS011;33060;50.178;7.570;2022-12-29T09:01:04;3.58;;;3.20;;
47329;SDS011;33060;50.178;7.570;2022-12-29T09:03:31;2.00;;;1.27;;
47329;SDS011;33060;50.178;7.570;2022-12-29T09:06:18;3.38;;;1.80;;
47329;SDS011;33060;50.178;7.570;2022-12-29T09:08:45;2.83;;;2.05;;
47329;SDS011;33060;50.178;7.570;2022-12-29T09:11:13;3.15;;;1.60;;
47329;SDS011;33060;50.178;7.570;2022-12-29T09:13:45;2.63;;;1.30;;
47329;SDS011;33060;50.178;7.570;2022-12-29T09:16:12;3.75;;;1.45;;
47329;SDS011;33060;50.178;7.570;2022-12-29T09:18:39;2.70;;;1.60;;
47329;SDS011;33060;50.178;7.570;2022-12-29T09:21:06;5.57;;;4.80;;
47329;SDS011;33060;50.178;7.570;2022-12-29T09:23:33;4.77;;;3.20;;
47329;SDS011;33060;50.178;7.570;2022-12-29T09:26:00;3.88;;;3.00;;
47329;SDS011;33060;50.178;7.570;2022-12-29T09:28:27;6.38;;;4.22;;
47329;SDS011;33060;50.178;7.570;2022-12-29T09:30:55;4.50;;;3.03;;
47329;SDS011;33060;50.178;7.570;2022-12-29T09:33:23;2.93;;;2.00;;
47329;SDS011;33060;50.178;7.570;2022-12-29T09:35:51;2.87;;;2.00;;
47329;SDS011;33060;50.178;7.570;2022-12-29T09:38:23;3.37;;;1.47;;
47329;SDS011;33060;50.178;7.570;2022-12-29T09:40:51;4.55;;;1.50;;
47329;SDS011;33060;50.178;7.570;2022-12-29T09:46:18;3.10;;;1.40;;
47329;SDS011;33060;50.178;7.570;2022-12-29T09:49:08;3.30;;;1.45;;
47329;SDS011;33060;50.178;7.570;2022-12-29T09:51:38;2.55;;;1.60;;
47329;SDS011;33060;50.178;7.570;2022-12-29T09:56:41;2.58;;;1.40;;
47329;SDS011;33060;50.178;7.570;2022-12-29T09:59:14;2.50;;;1.38;;
47329;SDS011;33060;50.178;7.570;2022-12-29T10:01:57;4.22;;;2.08;;
47329;SDS011;33060;50.178;7.570;2022-12-29T10:04:31;2.42;;;1.17;;
47329;SDS011;33060;50.178;7.570;2022-12-29T10:07:07;1.58;;;0.80;;
47329;SDS011;33060;50.178;7.570;2022-12-29T10:23:51;4.20;;;2.10;;
47329;SDS011;33060;50.178;7.570;2022-12-29T10:26:23;3.30;;;1.90;;
47329;SDS011;33060;50.178;7.570;2022-12-29T10:29:04;2.05;;;0.80;;
47329;SDS011;33060;50.178;7.570;2022-12-29T10:31:40;3.53;;;1.17;;
47329;SDS011;33060;50.178;7.570;2022-12-29T10:34:15;2.85;;;1.17;;
47329;SDS011;33060;50.178;7.570;2022-12-29T10:36:57;2.47;;;1.10;;
47329;SDS011;33060;50.178;7.570;2022-12-29T10:39:40;2.63;;;0.93;;
47329;SDS011;33060;50.178;7.570;2022-12-29T10:42:19;1.95;;;1.00;;
47329;SDS011;33060;50.178;7.570;2022-12-29T10:44:52;2.83;;;1.15;;
47329;SDS011;33060;50.178;7.570;2022-12-29T10:47:21;2.15;;;1.40;;
47329;SDS011;33060;50.178;7.570;2022-12-29T10:49:51;3.30;;;1.48;;
47329;SDS011;33060;50.178;7.570;2022-12-29T10:52:18;2.80;;;1.25;;
47329;SDS011;33060;50.178;7.570;2022-12-29T11:00:13;4.68;;;1.27;;
47329;SDS011;33060;50.178;7.570;2022-12-29T11:08:10;4.55;;;1.60;;
47329;SDS011;33060;50.178;7.570;2022-12-29T11:10:42;3.88;;;1.60;;
47329;SDS011;33060;50.178;7.570;2022-12-29T11:13:11;2.15;;;0.90;;
47329;SDS011;33060;50.178;7.570;2022-12-29T11:15:39;4.97;;;1.17;;
47329;SDS011;33060;50.178;7.570;2022-12-29T11:18:17;2.42;;;1.00;;
47329;SDS011;33060;50.178;7.570;2022-12-29T11:20:45;4.70;;;1.55;;
47329;SDS011;33060;50.178;7.570;2022-12-29T11:23:22;2.70;;;1.10;;
47329;SDS011;33060;50.178;7.570;2022-12-29T11:26:18;4.93;;;1.60;;
47329;SDS011;33060;50.178;7.570;2022-12-29T11:29:23;4.78;;;2.45;;
47329;SDS011;33060;50.178;7.570;2022-12-29T11:31:41;2.83;;;0.90;;
47329;SDS011;33060;50.178;7.570;2022-12-29T11:34:19;4.60;;;1.00;;
47329;SDS011;33060;50.178;7.570;2022-12-29T11:36:49;2.95;;;1.15;;
47329;SDS011;33060;50.178;7.570;2022-12-29T11:39:23;5.15;;;1.40;;
47329;SDS011;33060;50.178;7.570;2022-12-29T11:42:12;5.22;;;1.38;;
47329;SDS011;33060;50.178;7.570;2022-12-29T11:44:45;3.50;;;1.52;;
47329;SDS011;33060;50.178;7.570;2022-12-29T11:47:19;3.30;;;1.55;;
47329;SDS011;33060;50.178;7.570;2022-12-29T11:49:53;4.05;;;2.03;;
47329;SDS011;33060;50.178;7.570;2022-12-29T11:52:23;3.70;;;1.50;;
47329;SDS011;33060;50.178;7.570;2022-12-29T11:54:53;3.28;;;1.42;;
47329;SDS011;33060;50.178;7.570;2022-12-29T11:57:21;3.58;;;1.63;;
47329;SDS011;33060;50.178;7.570;2022-12-29T11:59:49;5.95;;;2.20;;
47329;SDS011;33060;50.178;7.570;2022-12-29T12:07:45;7.00;;;1.75;;
47329;SDS011;33060;50.178;7.570;2022-12-29T12:11:17;3.13;;;1.15;;
47329;SDS011;33060;50.178;7.570;2022-12-29T12:16:50;2.88;;;1.10;;
47329;SDS011;33060;50.178;7.570;2022-12-29T12:22:20;3.20;;;0.98;;
47329;SDS011;33060;50.178;7.570;2022-12-29T12:25:02;3.42;;;1.00;;
47329;SDS011;33060;50.178;7.570;2022-12-29T12:27:51;2.25;;;0.80;;
47329;SDS011;33060;50.178;7.570;2022-12-29T12:30:23;3.95;;;0.93;;
47329;SDS011;33060;50.178;7.570;2022-12-29T12:32:54;3.78;;;1.13;;
47329;SDS011;33060;50.178;7.570;2022-12-29T12:35:32;4.85;;;1.67;;
47329;SDS011;33060;50.178;7.570;2022-12-29T12:38:16;4.75;;;1.38;;
47329;SDS011;33060;50.178;7.570;2022-12-29T12:52:09;2.90;;;1.20;;
47329;SDS011;33060;50.178;7.570;2022-12-29T13:00:26;5.10;;;1.05;;
47329;SDS011;33060;50.178;7.570;2022-12-29T13:06:02;3.80;;;1.05;;
47329;SDS011;33060;50.178;7.570;2022-12-29T13:08:36;3.58;;;1.15;;
47329;SDS011;33060;50.178;7.570;2022-12-29T13:14:24;3.40;;;1.05;;
47329;SDS011;33060;50.178;7.570;2022-12-29T13:22:30;2.90;;;0.90;;
47329;SDS011;33060;50.178;7.570;2022-12-29T13:25:17;3.90;;;1.20;;
47329;SDS011;33060;50.178;7.570;2022-12-29T13:30:34;4.22;;;1.27;;
47329;SDS011;33060;50.178;7.570;2022-12-29T13:33:06;3.42;;;0.98;;
47329;SDS011;33060;50.178;7.570;2022-12-29T13:36:06;3.58;;;1.10;;
47329;SDS011;33060;50.178;7.570;2022-12-29T13:38:39;4.93;;;0.93;;
47329;SDS011;33060;50.178;7.570;2022-12-29T13:41:11;3.13;;;0.80;;
47329;SDS011;33060;50.178;7.570;2022-12-29T13:43:43;3.35;;;0.95;;
47329;SDS011;33060;50.178;7.570;2022-12-29T13:46:14;3.17;;;1.00;;
47329;SDS011;33060;50.178;7.570;2022-12-29T13:48:46;3.47;;;1.35;;
47329;SDS011;33060;50.178;7.570;2022-12-29T13:51:14;4.18;;;1.17;;
47329;SDS011;33060;50.178;7.570;2022-12-29T14:02:31;3.42;;;1.08;;
47329;SDS011;33060;50.178;7.570;2022-12-29T14:07:48;2.45;;;1.13;;
47329;SDS011;33060;50.178;7.570;2022-12-29T14:10:26;4.82;;;1.63;;
47329;SDS011;33060;50.178;7.570;2022-12-29T14:12:59;3.30;;;1.40;;
47329;SDS011;33060;50.178;7.570;2022-12-29T14:15:29;4.38;;;1.30;;
47329;SDS011;33060;50.178;7.570;2022-12-29T14:18:00;4.10;;;1.55;;
47329;SDS011;33060;50.178;7.570;2022-12-29T14:20:27;3.17;;;1.40;;
47329;SDS011;33060;50.178;7.570;2022-12-29T14:23:12;4.88;;;1.42;;
47329;SDS011;33060;50.178;7.570;2022-12-29T14:28:39;5.43;;;1.47;;
47329;SDS011;33060;50.178;7.570;2022-12-29T14:33:40;4.38;;;1.42;;
47329;SDS011;33060;50.178;7.570;2022-12-29T14:41:59;4.63;;;1.13;;
47329;SDS011;33060;50.178;7.570;2022-12-29T14:44:27;3.60;;;1.20;;
47329;SDS011;33060;50.178;7.570;2022-12-29T14:46:55;4.55;;;1.50;;
47329;SDS011;33060;50.178;7.570;2022-12-29T14:49:33;5.88;;;1.20;;
47329;SDS011;33060;50.178;7.570;2022-12-29T14:52:12;2.55;;;0.98;;
47329;SDS011;33060;50.178;7.570;2022-12-29T14:54:44;2.85;;;1.08;;
47329;SDS011;33060;50.178;7.570;2022-12-29T14:57:19;5.18;;;1.40;;
47329;SDS011;33060;50.178;7.570;2022-12-29T14:59:53;2.77;;;1.10;;
47329;SDS011;33060;50.178;7.570;2022-12-29T15:02:24;4.00;;;1.38;;
47329;SDS011;33060;50.178;7.570;2022-12-29T15:04:53;4.32;;;1.33;;
47329;SDS011;33060;50.178;7.570;2022-12-29T15:07:26;4.67;;;1.33;;
47329;SDS011;33060;50.178;7.570;2022-12-29T15:09:56;4.97;;;1.20;;
47329;SDS011;33060;50.178;7.570;2022-12-29T15:15:16;4.80;;;1.03;;
47329;SDS011;33060;50.178;7.570;2022-12-29T15:17:43;4.27;;;1.20;;
47329;SDS011;33060;50.178;7.570;2022-12-29T15:22:47;4.15;;;1.23;;
47329;SDS011;33060;50.178;7.570;2022-12-29T15:25:18;5.68;;;1.38;;
47329;SDS011;33060;50.178;7.570;2022-12-29T15:27:51;2.80;;;1.27;;
47329;SDS011;33060;50.178;7.570;2022-12-29T15:30:26;3.70;;;1.33;;
47329;SDS011;33060;50.178;7.570;2022-12-29T15:32:53;4.33;;;1.40;;
47329;SDS011;33060;50.178;7.570;2022-12-29T15:35:54;3.10;;;1.30;;
47329;SDS011;33060;50.178;7.570;2022-12-29T15:38:20;3.77;;;1.20;;
47329;SDS011;33060;50.178;7.570;2022-12-29T15:41:04;6.27;;;1.50;;
47329;SDS011;33060;50.178;7.570;2022-12-29T15:46:24;5.67;;;1.20;;
47329;SDS011;33060;50.178;7.570;2022-12-29T15:48:56;3.03;;;1.17;;
47329;SDS011;33060;50.178;7.570;2022-12-29T15:51:25;4.30;;;1.73;;
47329;SDS011;33060;50.178;7.570;2022-12-29T15:53:56;5.43;;;1.37;;
47329;SDS011;33060;50.178;7.570;2022-12-29T15:56:24;5.23;;;1.23;;
47329;SDS011;33060;50.178;7.570;2022-12-29T15:58:55;4.00;;;1.40;;
47329;SDS011;33060;50.178;7.570;2022-12-29T16:01:27;4.00;;;1.47;;
47329;SDS011;33060;50.178;7.570;2022-12-29T16:04:00;3.93;;;1.20;;
47329;SDS011;33060;50.178;7.570;2022-12-29T16:06:37;4.90;;;1.50;;
47329;SDS011;33060;50.178;7.570;2022-12-29T16:11:51;5.27;;;1.70;;
47329;SDS011;33060;50.178;7.570;2022-12-29T16:14:24;7.17;;;2.30;;
47329;SDS011;33060;50.178;7.570;2022-12-29T16:17:17;6.50;;;1.97;;
47329;SDS011;33060;50.178;7.570;2022-12-29T16:19:57;4.70;;;1.50;;
47329;SDS011;33060;50.178;7.570;2022-12-29T16:22:34;8.53;;;2.63;;
47329;SDS011;33060;50.178;7.570;2022-12-29T16:25:17;6.00;;;2.40;;
47329;SDS011;33060;50.178;7.570;2022-12-29T16:27:48;7.90;;;3.60;;
47329;SDS011;33060;50.178;7.570;2022-12-29T16:30:23;18.03;;;6.60;;
47329;SDS011;33060;50.178;7.570;2022-12-29T16:33:00;12.67;;;5.17;;
47329;SDS011;33060;50.178;7.570;2022-12-29T16:38:30;9.87;;;2.23;;
47329;SDS011;33060;50.178;7.570;2022-12-29T16:40:59;5.73;;;1.70;;
47329;SDS011;33060;50.178;7.570;2022-12-29T16:43:29;5.23;;;1.90;;
47329;SDS011;33060;50.178;7.570;2022-12-29T16:51:12;6.83;;;2.20;;
47329;SDS011;33060;50.178;7.570;2022-12-29T16:53:42;5.90;;;1.53;;
47329;SDS011;33060;50.178;7.570;2022-12-29T16:56:17;6.80;;;2.10;;
47329;SDS011;33060;50.178;7.570;2022-12-29T16:58:47;6.87;;;2.20;;
47329;SDS011;33060;50.178;7.570;2022-12-29T17:01:14;5.10;;;2.13;;
47329;SDS011;33060;50.178;7.570;2022-12-29T17:03:47;8.27;;;1.90;;
47329;SDS011;33060;50.178;7.570;2022-12-29T17:06:23;5.00;;;1.60;;
47329;SDS011;33060;50.178;7.570;2022-12-29T17:08:51;5.17;;;1.80;;
47329;SDS011;33060;50.178;7.570;2022-12-29T17:14:16;5.83;;;1.80;;
47329;SDS011;33060;50.178;7.570;2022-12-29T17:16:47;4.63;;;1.70;;
47329;SDS011;33060;50.178;7.570;2022-12-29T17:19:18;5.43;;;1.80;;
47329;SDS011;33060;50.178;7.570;2022-12-29T17:21:50;7.43;;;1.90;;
47329;SDS011;33060;50.178;7.570;2022-12-29T17:24:17;6.10;;;2.00;;
47329;SDS011;33060;50.178;7.570;2022-12-29T17:26:48;4.50;;;1.47;;
47329;SDS011;33060;50.178;7.570;2022-12-29T17:29:33;6.33;;;1.90;;
47329;SDS011;33060;50.178;7.570;2022-12-29T17:32:04;6.93;;;1.97;;
47329;SDS011;33060;50.178;7.570;2022-12-29T17:34:35;6.50;;;1.60;;
47329;SDS011;33060;50.178;7.570;2022-12-29T17:37:02;6.80;;;1.57;;
47329;SDS011;33060;50.178;7.570;2022-12-29T17:39:29;3.57;;;1.10;;
47329;SDS011;33060;50.178;7.570;2022-12-29T17:41:56;5.60;;;1.47;;
47329;SDS011;33060;50.178;7.570;2022-12-29T17:44:22;8.57;;;1.60;;
47329;SDS011;33060;50.178;7.570;2022-12-29T17:46:51;7.93;;;1.70;;
47329;SDS011;33060;50.178;7.570;2022-12-29T17:49:18;8.53;;;1.63;;
47329;SDS011;33060;50.178;7.570;2022-12-29T17:51:45;7.40;;;2.07;;
47329;SDS011;33060;50.178;7.570;2022-12-29T17:54:19;8.13;;;2.00;;